createdAt,value
2019-05-17T00:00:42.049Z,10.62
2019-05-17T00:03:17.032Z,10.53
2019-05-17T00:05:51.009Z,10.55
2019-05-17T00:08:31.921Z,10.59
2019-05-17T00:10:57.168Z,10.68
2019-05-17T00:13:29.530Z,10.74
2019-05-17T00:16:01.192Z,10.69
2019-05-17T00:18:32.744Z,10.78
2019-05-17T00:21:04.420Z,10.79
2019-05-17T00:23:37.516Z,10.75
2019-05-17T00:26:09.838Z,10.87
2019-05-17T00:28:41.429Z,10.72
2019-05-17T00:31:13.575Z,10.80
2019-05-17T00:33:47.106Z,10.67
2019-05-17T00:36:19.353Z,10.66
2019-05-17T00:38:51.740Z,10.64
2019-05-17T00:41:23.622Z,10.51
2019-05-17T00:43:56.910Z,10.50
2019-05-17T00:46:30.178Z,10.70
2019-05-17T00:49:02.028Z,10.63
2019-05-17T00:51:34.047Z,10.63
2019-05-17T00:54:06.824Z,10.62
2019-05-17T00:56:38.547Z,10.86
2019-05-17T00:59:10.411Z,10.71
2019-05-17T01:01:42.045Z,10.83
2019-05-17T01:04:14.408Z,10.69
2019-05-17T01:06:47.006Z,10.69
2019-05-17T01:09:19.145Z,10.58
2019-05-17T01:11:51.199Z,10.45
2019-05-17T01:14:22.891Z,10.58
2019-05-17T01:16:56.493Z,10.54
2019-05-17T01:19:28.152Z,10.43
2019-05-17T01:22:00.407Z,10.50
2019-05-17T01:24:32.430Z,10.68
2019-05-17T01:27:06.517Z,10.56
2019-05-17T01:29:38.558Z,10.58
2019-05-17T01:32:10.201Z,10.44
2019-05-17T01:34:41.781Z,10.64
2019-05-17T01:37:14.036Z,10.32
2019-05-17T01:39:46.850Z,10.40
2019-05-17T01:42:19.175Z,10.58
2019-05-17T01:44:51.335Z,10.67
2019-05-17T01:47:23.520Z,10.64
2019-05-17T01:49:57.571Z,10.59
2019-05-17T01:52:29.134Z,10.51
2019-05-17T01:55:01.051Z,10.49
2019-05-17T01:57:32.298Z,10.41
2019-05-17T02:00:06.486Z,10.39
2019-05-17T02:02:41.046Z,10.50
2019-05-17T02:05:12.493Z,10.36
2019-05-17T02:07:46.388Z,10.46
2019-05-17T02:10:18.278Z,10.46
2019-05-17T02:12:50.413Z,10.45
2019-05-17T02:15:23.296Z,10.52
2019-05-17T02:17:57.243Z,10.65
2019-05-17T02:20:28.449Z,10.46
2019-05-17T02:23:00.413Z,10.55
2019-05-17T02:25:32.053Z,10.49
2019-05-17T02:28:03.410Z,10.32
2019-05-17T02:30:35.362Z,10.37
2019-05-17T02:33:07.221Z,10.43
2019-05-17T02:35:42.690Z,10.46
2019-05-17T02:38:13.665Z,10.46
2019-05-17T02:40:45.751Z,10.49
2019-05-17T02:43:17.375Z,10.44
2019-05-17T02:45:52.494Z,10.48
2019-05-17T02:48:23.495Z,10.41
2019-05-17T02:50:56.287Z,10.43
2019-05-17T02:53:28.161Z,10.34
2019-05-17T02:56:02.960Z,10.31
2019-05-17T02:58:33.195Z,10.20
2019-05-17T03:01:05.750Z,10.09
2019-05-17T03:03:37.449Z,10.26
2019-05-17T03:06:09.088Z,10.29
2019-05-17T03:08:42.957Z,10.12
2019-05-17T03:11:14.053Z,9.76
2019-05-17T03:13:45.921Z,9.86
2019-05-17T03:16:17.502Z,9.99
2019-05-17T03:18:53.006Z,9.90
2019-05-17T03:21:23.746Z,9.79
2019-05-17T03:23:56.407Z,9.80
2019-05-17T03:26:28.264Z,9.73
2019-05-17T03:29:03.249Z,9.74
2019-05-17T03:31:41.761Z,9.74
2019-05-17T03:34:07.749Z,9.86
2019-05-17T03:36:38.936Z,9.78
2019-05-17T03:39:13.022Z,9.74
2019-05-17T03:41:44.710Z,9.74
2019-05-17T03:44:16.517Z,9.76
2019-05-17T03:46:48.702Z,9.66
2019-05-17T03:49:22.302Z,9.74
2019-05-17T03:51:55.541Z,9.57
2019-05-17T03:54:27.109Z,9.73
2019-05-17T03:57:02.633Z,9.76
2019-05-17T03:59:33.505Z,9.57
2019-05-17T04:02:05.552Z,9.77
2019-05-17T04:04:38.541Z,9.57
2019-05-17T04:07:12.748Z,9.40
2019-05-17T04:09:43.865Z,9.27
2019-05-17T04:12:16.163Z,9.18
2019-05-17T04:14:48.377Z,9.13
2019-05-17T04:17:22.756Z,9.01
2019-05-17T04:19:54.262Z,8.95
2019-05-17T04:22:26.209Z,8.97
2019-05-17T04:24:58.547Z,9.08
2019-05-17T04:27:32.713Z,9.12
2019-05-17T04:30:04.108Z,9.12
2019-05-17T04:32:35.595Z,9.01
2019-05-17T04:35:07.324Z,9.19
2019-05-17T04:37:39.286Z,9.19
2019-05-17T04:40:14.194Z,9.04
2019-05-17T04:42:46.166Z,9.11
2019-05-17T04:45:17.464Z,9.10
2019-05-17T04:47:52.693Z,9.19
2019-05-17T04:50:23.344Z,9.10
2019-05-17T04:52:54.936Z,9.11
2019-05-17T04:55:26.725Z,9.20
2019-05-17T04:57:58.554Z,9.32
2019-05-17T05:00:33.545Z,9.17
2019-05-17T05:03:04.309Z,9.25
2019-05-17T05:05:36.521Z,9.18
2019-05-17T05:08:08.569Z,9.20
2019-05-17T05:10:42.666Z,9.32
2019-05-17T05:13:13.627Z,9.29
2019-05-17T05:15:52.199Z,9.40
2019-05-17T05:18:23.931Z,9.48
2019-05-17T05:20:55.403Z,9.64
2019-05-17T05:23:27.498Z,9.94
2019-05-17T05:25:58.731Z,9.69
2019-05-17T05:28:31.815Z,9.86
2019-05-17T05:31:04.089Z,10.04
2019-05-17T05:33:35.649Z,10.17
2019-05-17T05:36:07.004Z,10.16
2019-05-17T05:38:38.570Z,10.45
2019-05-17T05:41:12.204Z,10.27
2019-05-17T05:43:45.232Z,10.30
2019-05-17T05:46:17.041Z,10.00
2019-05-17T05:48:49.246Z,10.06
2019-05-17T05:51:21.639Z,10.45
2019-05-17T05:53:52.666Z,10.45
2019-05-17T05:56:24.335Z,10.35
2019-05-17T05:58:56.086Z,10.45
2019-05-17T06:01:27.911Z,10.46
2019-05-17T06:04:02.510Z,10.50
2019-05-17T06:06:33.036Z,10.43
2019-05-17T06:09:06.461Z,10.69
2019-05-17T06:11:38.019Z,10.45
2019-05-17T06:14:11.988Z,10.50
2019-05-17T06:16:42.727Z,10.79
2019-05-17T06:19:14.491Z,10.64
2019-05-17T06:21:46.714Z,10.82
2019-05-17T06:24:18.478Z,10.68
2019-05-17T06:26:52.370Z,10.98
2019-05-17T06:29:23.425Z,10.87
2019-05-17T06:31:54.963Z,11.24
2019-05-17T06:34:26.633Z,10.84
2019-05-17T06:36:58.214Z,10.80
2019-05-17T06:39:29.736Z,11.10
2019-05-17T06:42:02.729Z,11.04
2019-05-17T06:44:34.795Z,11.02
2019-05-17T06:47:06.435Z,10.97
2019-05-17T06:49:38.320Z,10.96
2019-05-17T06:52:11.663Z,11.08
2019-05-17T06:54:43.489Z,11.15
2019-05-17T06:57:15.016Z,11.25
2019-05-17T06:59:46.663Z,11.27
2019-05-17T07:02:19.729Z,11.36
2019-05-17T07:04:52.268Z,11.66
2019-05-17T07:07:27.056Z,11.75
2019-05-17T07:10:00.504Z,11.70
2019-05-17T07:12:33.678Z,11.89
2019-05-17T07:15:05.484Z,11.76
2019-05-17T07:17:39.789Z,12.03
2019-05-17T07:20:10.812Z,12.05
2019-05-17T07:22:43.013Z,11.85
2019-05-17T07:25:14.621Z,11.85
2019-05-17T07:27:46.483Z,11.90
2019-05-17T07:30:19.501Z,12.05
2019-05-17T07:32:51.748Z,11.86
2019-05-17T07:35:23.511Z,12.00
2019-05-17T07:37:55.513Z,12.25
2019-05-17T07:40:27.497Z,12.17
2019-05-17T07:43:10.183Z,12.38
2019-05-17T07:45:32.828Z,12.38
2019-05-17T07:48:04.506Z,12.34
2019-05-17T07:50:36.151Z,12.60
2019-05-17T07:53:09.960Z,12.66
2019-05-17T07:55:40.442Z,12.16
2019-05-17T07:58:12.142Z,12.01
2019-05-17T08:00:44.259Z,12.21
2019-05-17T08:03:16.187Z,12.21
2019-05-17T08:05:50.463Z,12.24
2019-05-17T08:08:21.415Z,12.31
2019-05-17T08:10:53.750Z,12.50
2019-05-17T08:13:33.017Z,12.64
2019-05-17T08:16:01.788Z,12.88
2019-05-17T08:18:33.417Z,12.48
2019-05-17T08:21:04.971Z,12.82
2019-05-17T08:23:36.915Z,12.57
2019-05-17T08:26:10.750Z,12.74
2019-05-17T08:28:41.992Z,12.69
2019-05-17T08:31:13.843Z,12.71
2019-05-17T08:33:45.745Z,12.55
2019-05-17T08:36:17.352Z,12.69
2019-05-17T08:38:50.163Z,12.75
2019-05-17T08:41:22.066Z,12.71
2019-05-17T08:43:53.620Z,12.85
2019-05-17T08:46:25.445Z,12.61
2019-05-17T08:48:57.044Z,12.70
2019-05-17T08:51:30.475Z,12.73
2019-05-17T08:54:02.260Z,12.79
2019-05-17T08:56:33.779Z,13.02
2019-05-17T08:59:05.515Z,12.78
2019-05-17T09:01:39.203Z,12.75
2019-05-17T09:04:10.640Z,12.89
2019-05-17T09:06:42.125Z,12.54
2019-05-17T09:09:13.994Z,12.47
2019-05-17T09:11:45.728Z,12.68
2019-05-17T09:14:17.029Z,12.72
2019-05-17T09:16:50.472Z,12.73
2019-05-17T09:19:23.133Z,12.87
2019-05-17T09:21:55.279Z,13.05
2019-05-17T09:24:26.504Z,13.18
2019-05-17T09:26:59.887Z,13.13
2019-05-17T09:29:32.188Z,13.28
2019-05-17T09:32:03.688Z,13.32
2019-05-17T09:34:35.497Z,13.15
2019-05-17T09:37:06.787Z,13.20
2019-05-17T09:39:40.167Z,13.30
2019-05-17T09:42:12.824Z,13.88
2019-05-17T09:44:44.199Z,13.97
2019-05-17T09:47:16.513Z,14.34
2019-05-17T09:49:50.178Z,14.52
2019-05-17T09:53:00.329Z,14.11
2019-05-17T09:55:32.265Z,13.62
2019-05-17T09:58:03.613Z,13.92
2019-05-17T10:00:34.992Z,14.03
2019-05-17T10:03:06.608Z,14.06
2019-05-17T10:05:40.536Z,13.90
2019-05-17T10:08:11.466Z,14.08
2019-05-17T10:10:42.717Z,14.25
2019-05-17T10:13:13.936Z,14.92
2019-05-17T10:15:45.693Z,14.66
2019-05-17T10:18:17.290Z,14.91
2019-05-17T10:20:50.609Z,15.09
2019-05-17T10:23:22.099Z,14.88
2019-05-17T10:25:53.342Z,15.05
2019-05-17T10:28:25.299Z,15.32
2019-05-17T10:31:02.055Z,15.06
2019-05-17T10:33:31.278Z,15.19
2019-05-17T10:36:03.358Z,15.40
2019-05-17T10:38:34.992Z,15.35
2019-05-17T10:41:06.055Z,15.67
2019-05-17T10:43:39.249Z,15.34
2019-05-17T10:46:10.822Z,15.46
2019-05-17T10:48:42.656Z,15.34
2019-05-17T10:51:14.504Z,15.48
2019-05-17T10:53:46.056Z,15.82
2019-05-17T10:56:19.915Z,16.01
2019-05-17T10:58:50.754Z,15.94
2019-05-17T11:01:22.042Z,15.90
2019-05-17T11:03:53.317Z,15.72
2019-05-17T11:06:24.595Z,15.73
2019-05-17T11:08:56.341Z,15.74
2019-05-17T11:11:27.891Z,16.24
2019-05-17T11:13:59.638Z,16.38
2019-05-17T11:16:31.871Z,16.91
2019-05-17T11:19:03.273Z,16.11
2019-05-17T11:21:34.840Z,15.89
2019-05-17T11:24:06.862Z,16.59
2019-05-17T11:26:39.112Z,16.03
2019-05-17T11:29:10.956Z,16.11
2019-05-17T11:31:42.211Z,16.45
2019-05-17T11:34:13.792Z,16.52
2019-05-17T11:36:45.334Z,17.41
2019-05-17T11:39:16.983Z,17.17
2019-05-17T11:41:49.547Z,16.98
2019-05-17T11:44:20.821Z,17.09
2019-05-17T11:46:52.235Z,17.17
2019-05-17T11:49:24.340Z,18.07
2019-05-17T11:51:56.392Z,17.28
2019-05-17T11:54:28.029Z,16.78
2019-05-17T11:57:00.080Z,16.75
2019-05-17T11:59:32.624Z,16.79
2019-05-17T12:02:04.190Z,17.22
2019-05-17T12:04:35.803Z,16.28
2019-05-17T12:07:07.550Z,16.30
2019-05-17T12:09:39.149Z,16.17
2019-05-17T12:12:10.870Z,16.03
2019-05-17T12:14:42.796Z,16.26
2019-05-17T12:17:14.570Z,16.44
2019-05-17T12:19:46.101Z,16.12
2019-05-17T12:22:17.144Z,16.17
2019-05-17T12:24:48.443Z,16.02
2019-05-17T12:27:20.403Z,16.00
2019-05-17T12:29:52.196Z,16.08
2019-05-17T12:32:23.983Z,15.71
2019-05-17T12:34:55.440Z,15.77
2019-05-17T12:37:27.583Z,16.34
2019-05-17T12:39:59.564Z,16.38
2019-05-17T12:42:30.919Z,15.81
2019-05-17T12:45:02.697Z,16.07
2019-05-17T12:47:34.325Z,16.29
2019-05-17T12:50:06.064Z,15.85
2019-05-17T12:52:37.621Z,16.26
2019-05-17T12:55:09.753Z,15.94
2019-05-17T12:57:41.297Z,15.62
2019-05-17T13:00:13.855Z,15.59
2019-05-17T13:02:45.567Z,15.54
2019-05-17T13:05:17.666Z,15.81
2019-05-17T13:07:49.814Z,15.73
2019-05-17T13:10:21.460Z,15.96
2019-05-17T13:12:53.319Z,15.88
2019-05-17T13:15:25.191Z,15.68
2019-05-17T13:17:56.991Z,15.95
2019-05-17T13:20:28.412Z,15.79
2019-05-17T13:23:00.042Z,15.91
2019-05-17T13:25:31.366Z,16.04
2019-05-17T13:28:02.984Z,15.75
2019-05-17T13:30:35.057Z,16.23
2019-05-17T13:33:06.690Z,16.11
2019-05-17T13:35:38.442Z,16.11
2019-05-17T13:38:09.973Z,16.07
2019-05-17T13:40:41.536Z,16.07
2019-05-17T13:43:13.390Z,16.08
2019-05-17T13:45:44.883Z,16.20
2019-05-17T13:48:16.506Z,15.98
2019-05-17T13:50:51.862Z,16.60
2019-05-17T13:53:21.540Z,16.62
2019-05-17T13:55:52.831Z,16.74
2019-05-17T13:58:24.800Z,16.80
2019-05-17T14:00:57.625Z,16.66
2019-05-17T14:03:29.325Z,16.11
2019-05-17T14:06:03.407Z,16.33
2019-05-17T14:08:34.953Z,15.97
2019-05-17T14:11:06.622Z,16.30
2019-05-17T14:13:38.681Z,16.46
2019-05-17T14:16:10.325Z,16.61
2019-05-17T14:18:42.183Z,16.48
2019-05-17T14:21:13.699Z,16.60
2019-05-17T14:23:46.305Z,16.58
2019-05-17T14:26:18.274Z,16.67
2019-05-17T14:28:50.272Z,16.61
2019-05-17T14:31:21.619Z,16.60
2019-05-17T14:33:53.642Z,16.96
2019-05-17T14:36:25.633Z,16.65
2019-05-17T14:38:57.535Z,16.68
2019-05-17T14:41:29.412Z,17.13
2019-05-17T14:44:01.398Z,16.96
2019-05-17T14:46:33.356Z,17.03
2019-05-17T14:49:05.726Z,17.35
2019-05-17T14:51:37.643Z,17.25
2019-05-17T14:54:08.937Z,16.92
2019-05-17T14:56:41.492Z,16.75
2019-05-17T14:59:13.349Z,16.84
2019-05-17T15:01:45.020Z,16.63
2019-05-17T15:04:16.991Z,16.63
2019-05-17T15:06:48.686Z,16.79
2019-05-17T15:09:21.271Z,16.89
2019-05-17T15:11:53.109Z,16.60
2019-05-17T15:14:29.431Z,16.98
2019-05-17T15:17:00.376Z,17.04
2019-05-17T15:19:32.157Z,17.05
2019-05-17T15:22:04.058Z,17.76
2019-05-17T15:24:38.196Z,17.75
2019-05-17T15:33:39.212Z,18.38
2019-05-17T15:36:11.489Z,17.66
2019-05-17T15:38:43.545Z,17.39
2019-05-17T15:41:15.325Z,17.31
2019-05-17T15:43:47.860Z,17.22
2019-05-17T15:46:20.445Z,17.22
2019-05-17T15:48:52.015Z,17.36
2019-05-17T15:51:23.132Z,17.07
2019-05-17T15:53:54.496Z,16.96
2019-05-17T15:56:25.609Z,16.73
2019-05-17T15:58:57.222Z,16.72
2019-05-17T16:01:28.319Z,16.76
2019-05-17T16:03:59.385Z,16.85
2019-05-17T16:06:31.962Z,16.95
2019-05-17T16:09:05.079Z,16.87
2019-05-17T16:11:36.199Z,16.79
2019-05-17T16:14:07.512Z,16.83
2019-05-17T16:16:38.731Z,16.83
2019-05-17T16:19:09.774Z,16.55
2019-05-17T16:21:41.281Z,16.60
2019-05-17T16:24:12.884Z,16.69
2019-05-17T16:26:43.775Z,16.75
2019-05-17T16:29:15.097Z,16.63
2019-05-17T16:31:46.139Z,16.86
2019-05-17T16:34:17.507Z,16.84
2019-05-17T16:36:48.778Z,16.75
2019-05-17T16:39:20.124Z,16.68
2019-05-17T16:41:51.111Z,16.88
2019-05-17T16:44:24.872Z,16.98
2019-05-17T16:46:56.132Z,17.05
2019-05-17T16:49:28.562Z,16.91
2019-05-17T16:51:59.604Z,16.90
2019-05-17T16:54:30.997Z,16.86
2019-05-17T16:57:02.016Z,16.71
2019-05-17T16:59:33.017Z,16.87
2019-05-17T17:02:04.339Z,16.72
2019-05-17T17:04:36.351Z,16.65
2019-05-17T17:07:07.452Z,16.83
2019-05-17T17:09:39.447Z,16.79
2019-05-17T17:12:10.520Z,16.60
2019-05-17T17:14:42.003Z,16.43
2019-05-17T17:17:13.646Z,16.32
2019-05-17T17:19:45.108Z,16.26
2019-05-17T17:22:16.307Z,16.23
2019-05-17T17:24:47.334Z,16.19
2019-05-17T17:27:18.573Z,16.20
2019-05-17T17:29:50.068Z,16.18
2019-05-17T17:32:21.913Z,16.27
2019-05-17T17:34:53.925Z,16.18
2019-05-17T17:37:25.406Z,16.14
2019-05-17T17:39:56.710Z,16.26
2019-05-17T17:42:29.436Z,16.14
2019-05-17T17:45:00.797Z,16.12
2019-05-17T17:47:32.270Z,16.01
2019-05-17T17:50:04.768Z,15.78
2019-05-17T17:52:37.594Z,15.89
2019-05-17T17:55:08.915Z,15.73
2019-05-17T17:57:41.605Z,15.75
2019-05-17T18:00:14.097Z,15.92
2019-05-17T18:02:45.593Z,16.41
2019-05-17T18:05:16.784Z,16.61
2019-05-17T18:07:49.236Z,17.22
2019-05-17T18:10:30.924Z,16.67
2019-05-17T18:13:02.084Z,16.32
2019-05-17T18:15:41.164Z,16.32
2019-05-17T18:18:12.986Z,15.99
2019-05-17T18:20:44.215Z,16.03
2019-05-17T18:23:19.030Z,15.88
2019-05-17T18:25:48.712Z,15.89
2019-05-17T18:28:23.166Z,15.68
2019-05-17T18:30:55.004Z,15.65
2019-05-17T18:33:26.886Z,15.63
2019-05-17T18:35:58.898Z,15.69
2019-05-17T18:38:33.959Z,15.74
2019-05-17T18:41:06.151Z,15.60
2019-05-17T18:43:37.185Z,15.41
2019-05-17T18:46:08.866Z,15.42
2019-05-17T18:48:40.162Z,15.46
2019-05-17T18:51:11.897Z,15.49
2019-05-17T18:53:43.870Z,15.33
2019-05-17T18:56:15.865Z,15.32
2019-05-17T18:58:47.557Z,15.14
2019-05-17T19:01:20.758Z,15.06
2019-05-17T19:03:53.701Z,15.05
2019-05-17T19:06:25.075Z,14.97
2019-05-17T19:08:59.002Z,14.94
2019-05-17T19:11:33.771Z,14.97
2019-05-17T19:14:05.073Z,14.97
2019-05-17T19:16:36.498Z,14.84
2019-05-17T19:19:09.010Z,14.81
2019-05-17T19:21:41.590Z,14.88
2019-05-17T19:24:13.091Z,14.78
2019-05-17T19:26:45.323Z,14.75
2019-05-17T19:29:17.051Z,14.62
2019-05-17T19:31:49.326Z,14.61
2019-05-17T19:34:21.066Z,14.55
2019-05-17T19:36:52.773Z,14.38
2019-05-17T19:39:24.711Z,14.40
2019-05-17T19:41:56.137Z,14.34
2019-05-17T19:44:28.401Z,14.24
2019-05-17T19:46:59.966Z,14.28
2019-05-17T19:49:35.259Z,14.25
2019-05-17T19:52:09.320Z,14.21
2019-05-17T19:54:40.296Z,14.07
2019-05-17T19:57:12.100Z,14.08
2019-05-17T19:59:43.479Z,14.11
2019-05-17T20:02:14.576Z,14.14
2019-05-17T20:04:45.991Z,13.94
2019-05-17T20:07:17.825Z,13.89
2019-05-17T20:09:49.999Z,13.97
2019-05-17T20:12:21.153Z,13.84
2019-05-17T20:14:52.332Z,13.89
2019-05-17T20:17:23.525Z,13.72
2019-05-17T20:19:55.084Z,13.71
2019-05-17T20:22:26.439Z,13.61
2019-05-17T20:24:57.850Z,13.57
2019-05-17T20:27:28.988Z,13.42
2019-05-17T20:30:00.325Z,13.40
2019-05-17T20:32:31.769Z,13.36
2019-05-17T20:35:02.887Z,13.32
2019-05-17T20:37:36.884Z,13.33
2019-05-17T20:40:08.283Z,13.27
2019-05-17T20:42:39.426Z,13.25
2019-05-17T20:45:11.355Z,13.22
2019-05-17T20:47:42.757Z,13.14
2019-05-17T20:50:15.714Z,13.29
2019-05-17T20:52:47.308Z,13.13
2019-05-17T20:55:18.963Z,13.09
2019-05-17T20:57:51.200Z,13.14
2019-05-17T21:00:22.280Z,12.98
2019-05-17T21:02:53.320Z,12.87
2019-05-17T21:05:24.690Z,12.70
2019-05-17T21:07:56.045Z,12.68
2019-05-17T21:10:27.088Z,12.60
2019-05-17T21:12:58.107Z,12.47
2019-05-17T21:15:29.429Z,12.39
2019-05-17T21:18:01.137Z,12.58
2019-05-17T21:20:32.425Z,12.46
2019-05-17T21:23:03.567Z,12.61
2019-05-17T21:25:34.651Z,12.50
2019-05-17T21:28:05.646Z,12.49
2019-05-17T21:30:36.767Z,12.52
2019-05-17T21:33:08.014Z,12.40
2019-05-17T21:35:39.016Z,12.50
2019-05-17T21:38:10.083Z,12.30
2019-05-17T21:40:41.561Z,12.25
2019-05-17T21:43:12.665Z,12.28
2019-05-17T21:45:45.854Z,12.23
2019-05-17T21:48:17.148Z,12.35
2019-05-17T21:50:48.123Z,12.30
2019-05-17T21:53:19.119Z,12.27
2019-05-17T21:55:50.069Z,12.13
2019-05-17T21:58:21.325Z,12.23
2019-05-17T22:01:23.268Z,12.09
2019-05-17T22:03:58.651Z,12.13
2019-05-17T22:06:29.695Z,12.13
2019-05-17T22:09:01.219Z,12.02
2019-05-17T22:11:34.145Z,12.08
2019-05-17T22:14:05.424Z,12.04
2019-05-17T22:16:36.739Z,12.00
2019-05-17T22:19:07.874Z,11.66
2019-05-17T22:21:38.910Z,11.66
2019-05-17T22:24:09.930Z,11.72
2019-05-17T22:26:41.261Z,11.62
2019-05-17T22:29:12.351Z,11.54
2019-05-17T22:31:43.667Z,11.65
2019-05-17T22:34:14.687Z,11.72
2019-05-17T22:36:45.752Z,11.99
2019-05-17T22:39:17.151Z,11.75
2019-05-17T22:41:48.201Z,11.74
2019-05-17T22:44:19.286Z,11.78
2019-05-17T22:46:50.334Z,11.49
2019-05-17T22:49:21.453Z,11.43
2019-05-17T22:51:53.537Z,11.55
2019-05-17T22:54:24.646Z,11.50
2019-05-17T22:56:55.799Z,11.45
2019-05-17T22:59:27.120Z,11.71
2019-05-17T23:01:58.088Z,11.54
2019-05-17T23:04:29.064Z,11.69
2019-05-17T23:07:00.333Z,11.50
2019-05-17T23:09:31.821Z,11.65
2019-05-17T23:12:03.364Z,11.52
2019-05-17T23:14:34.447Z,11.42
2019-05-17T23:17:05.943Z,11.25
2019-05-17T23:19:36.969Z,11.34
2019-05-17T23:22:08.306Z,11.43
2019-05-17T23:24:39.369Z,11.48
2019-05-17T23:27:10.627Z,11.61
2019-05-17T23:29:42.019Z,11.32
2019-05-17T23:32:13.353Z,11.22
2019-05-17T23:34:44.412Z,11.20
2019-05-17T23:37:15.792Z,11.06
2019-05-17T23:39:46.813Z,10.99
2019-05-17T23:42:18.230Z,11.19
2019-05-17T23:44:49.751Z,11.30
2019-05-17T23:47:20.719Z,11.22
2019-05-17T23:49:52.069Z,11.34
2019-05-17T23:52:23.358Z,11.21
2019-05-17T23:54:54.442Z,11.09
2019-05-17T23:57:25.759Z,11.12
2019-05-17T23:59:56.879Z,11.31
